Airfield :
LOGIN :

Register | Disclaimer

   EN    FR    IT 

 










Legend :    VFR   Marginal VFR   IFR   Intensive IFR   Very Intensive IFR
Visi :
Ceiling :
>= 8 km
>= 3000ft
5 to 8 km
1000 to 3000 ft
1500m to 5 km
500 to 1000 ft
800 to 1500m
200 to 500 ft
< 800m
< 200 ft
Symbols :   Thunderstorms  Fog  Heavy snow  Heavy precipitations  Wind > 20 kt
SIGMETs :     Misc.  Thunderstorms  Icing  Turbulence  Mountain Waves  Volcanic Ashes







- Airport Elevation : 124 ft
- IATA code : RNS
- Download approach charts


LFRN - Rennes

CURRENT METAR :
  • 301630Z AUTO 16009KT 9999 BKN017/// BKN022/// BKN041/// ///TCU 12/09 Q0997 TEMPO 2500 TSRA BKN010 BKN015CB BECMG 30010KT

EXPIRED METARs :
  • 301600Z AUTO 17009KT 9999 FEW012/// SCT018/// BKN024/// ///TCU 11/09 Q0997 TEMPO 20015G25KT 2500 TSRA BKN010 BKN015CB
  • 301530Z AUTO 18009KT 150V210 9999 FEW008/// BKN014/// OVC020/// ///TCU 12/10 Q0997 TEMPO 20015G25KT 2500 TSRA BKN010 BKN015CB
  • 301500Z AUTO 16008KT 9999 FEW011/// SCT019/// BKN048/// ///TCU 10/09 Q0997 TEMPO 20015G25KT 2500 TSRA BKN010 BKN015CB
  • 301430Z AUTO 18005KT 150V210 9999 -RA FEW012/// OVC052/// ///TCU 09/08 Q0997 TEMPO 20015G25KT 2500 TSRA BKN010 BKN015CB
  • 301400Z AUTO 20006KT 5000 +RA BR SCT013/// SCT020/// OVC045/// ///CB 09/08 Q0997 TEMPO 17015G25KT 2500 TSRA BKN010 BKN015CB

TAF AMD TAF LFRN
Valid from the 30 at 14:00 until the 01 at 12:00 UTC


301401Z 3014/0112 20010KT 9999 BKN030
TEMPO 3014/0101 5000 RA BKN010 BKN015CB
PROB40
TEMPO 3014/3018 20015G25KT 2500 TSRA
BECMG 3018/3021 30010KT
PROB30
TEMPO 3021/3024 30015G25KT
BECMG 3022/3024 25010KT
BECMG 0106/0109 25015G25KT
PROB40
TEMPO 0106/0112 4000 SHRA BKN020TCU
ATIS : +33 2 99 67 72 50
No reported NOTAMs for that airfield.
1 SIGMET reported for the Brest FIR (LFRR) :
 
Embedded thunderstorms
LFRR SIGMET 8 VALID 301500/301700 LFPW
LFRR BREST FIR/UIR EMBD TS OBS WI N4915 W00015 - N4830 W00015 - N4830 W00115 - N4915 W00115 TOP FL300 STNR NC=



MET'MAP, your aeronautical weather chart ! - Copyright ORBIFLY December 2007 - Disclaimer

ORBIFLY MET'MAP TEAM :

Programming & Development : Alexandra Zaïnal
Concept & Development : Baudouin d'Aumeries
Co-Development & Prog : Marc-Olivier Méhu
Technical & hardware support : Manuel Goepfert

Contact : metmap@orbifly.com




SOURCES & CREDITS :

   NOAA